Time;durP1;ratioP1;P1;durP2;ratioP2;P2;SDS_P1;SDS_P2;PMS_P1;PMS_P2;Temp;Humidity;BMP_temperature;BMP_pressure;BME280_temperature;BME280_humidity;BME280_pressure;Samples;Min_cycle;Max_cycle;Signal;HPM_P1;HPM_P2
2022/12/16 00:00:12;;;;;;;;;;;;;;;-0.95;100.00;94122.16;10515944;28;1911;-73
2022/12/16 00:05:30;;;;;;;;;;;;;;;-0.90;100.00;94126.69;10515241;28;1978;-71
2022/12/16 00:10:51;;;;;;;;;;;;;;;-0.86;100.00;94128.59;10514972;28;2157;-72
2022/12/16 00:15:57;;;;;;;;;;;;;;;-0.94;100.00;94123.75;10514930;28;1982;-72
2022/12/16 00:21:00;;;;;;;;;;;;;;;-0.96;100.00;94123.16;10517877;28;1966;-73
2022/12/16 00:26:03;;;;;;;;;;;;;;;-0.95;100.00;94121.38;10511667;28;2079;-72
2022/12/16 00:31:06;;;;;;;;;;;;;;;-0.95;100.00;94122.16;10520228;28;2056;-72
2022/12/16 00:36:10;;;;;;;;;;;;;;;-0.99;100.00;94128.16;10515994;28;1957;-72
2022/12/16 00:41:13;;;;;;;;;;;;;;;-0.80;100.00;94123.41;10520136;28;2005;-72
2022/12/16 00:46:16;;;;;;;;;;;;;;;-0.94;100.00;94122.94;10512256;28;2105;-72
2022/12/16 00:51:20;;;;;;;;;;;;;;;-0.96;100.00;94125.81;10512550;28;1914;-72
2022/12/16 00:56:23;;;;;;;;;;;;;;;-1.00;100.00;94130.00;10512582;28;2002;-72
2022/12/16 01:01:27;;;;;;;;;;;;;;;-0.94;100.00;94144.84;10493533;28;2025;-74
2022/12/16 01:06:30;;;;;;;;;;;;;;;-0.94;100.00;94150.13;10521271;28;1946;-74
2022/12/16 01:11:34;;;;;;;;;;;;;;;-0.94;100.00;94165.16;10517053;28;1982;-72
2022/12/16 01:16:37;;;;;;;;;;;;;;;-0.94;100.00;94165.94;10520178;28;1910;-73
2022/12/16 01:21:40;;;;;;;;;;;;;;;-1.02;100.00;94178.72;10523013;28;1915;-72
2022/12/16 01:26:43;;;;;;;;;;;;;;;-0.88;100.00;94178.19;10514817;28;2074;-72
2022/12/16 01:31:47;;;;;;;;;;;;;;;-0.89;100.00;94178.41;10515673;28;1988;-72
2022/12/16 01:36:50;;;;;;;;;;;;;;;-0.91;100.00;94183.13;10530194;28;1969;-71
2022/12/16 01:41:54;;;;;;;;;;;;;;;-0.91;100.00;94185.75;10527424;28;1931;-71
2022/12/16 01:46:58;;;;;;;;;;;;;;;-0.86;100.00;94196.41;10532027;28;1983;-73
2022/12/16 01:52:01;;;;;;;;;;;;;;;-0.82;100.00;94185.13;10523413;28;2024;-72
2022/12/16 01:57:05;;;;;;;;;;;;;;;-0.83;100.00;94185.34;10520811;28;2081;-73
2022/12/16 02:02:09;;;;;;;;;;;;;;;-0.83;100.00;94188.00;10524532;28;1966;-71
2022/12/16 02:07:12;;;;;;;;;;;;;;;-0.90;100.00;94182.09;10521481;28;1793;-72
2022/12/16 02:12:15;;;;;;;;;;;;;;;-1.02;100.00;94182.16;10523694;28;1961;-73
2022/12/16 02:17:19;;;;;;;;;;;;;;;-0.97;100.00;94181.44;10512963;28;2148;-71
2022/12/16 02:22:22;;;;;;;;;;;;;;;-1.01;100.00;94190.91;10525186;28;1903;-71
2022/12/16 02:27:25;;;;;;;;;;;;;;;-1.06;100.00;94190.81;10528608;28;1961;-75
2022/12/16 02:32:29;;;;;;;;;;;;;;;-1.00;100.00;94200.41;10521816;28;1982;-74
2022/12/16 02:37:32;;;;;;;;;;;;;;;-1.02;100.00;94213.00;10522504;28;2125;-72
2022/12/16 02:42:35;;;;;;;;;;;;;;;-1.05;100.00;94219.56;10494269;28;1844;-71
2022/12/16 02:47:43;;;;;;;;;;;;;;;-0.96;100.00;94225.25;10511819;28;1931;-72
2022/12/16 02:52:47;;;;;;;;;;;;;;;-0.99;100.00;94226.53;10516627;28;1895;-72
2022/12/16 02:57:50;;;;;;;;;;;;;;;-1.02;100.00;94226.19;10517108;28;1990;-72
2022/12/16 03:02:53;;;;;;;;;;;;;;;-0.88;100.00;94240.69;10520079;28;2045;-70
2022/12/16 03:07:57;;;;;;;;;;;;;;;-0.90;100.00;94240.91;10520960;28;1971;-71
2022/12/16 03:13:00;;;;;;;;;;;;;;;-1.16;100.00;94258.16;10514978;28;1954;-71
2022/12/16 03:18:04;;;;;;;;;;;;;;;-1.17;100.00;94253.91;10503161;28;1977;-70
2022/12/16 03:23:07;;;;;;;;;;;;;;;-1.42;100.00;94248.19;10513929;28;1827;-71
2022/12/16 03:28:10;;;;;;;;;;;;;;;-1.53;100.00;94246.41;10505149;28;1980;-71
2022/12/16 03:33:14;;;;;;;;;;;;;;;-1.54;100.00;94248.25;10522066;28;1872;-71
2022/12/16 03:38:17;;;;;;;;;;;;;;;-1.49;100.00;94242.28;10513319;28;1980;-71
2022/12/16 03:43:20;;;;;;;;;;;;;;;-1.79;100.00;94255.66;10523754;28;1930;-71
2022/12/16 03:48:23;;;;;;;;;;;;;;;-1.85;100.00;94257.41;10516971;28;1947;-70
2022/12/16 03:53:27;;;;;;;;;;;;;;;-1.81;100.00;94266.44;10512612;28;1963;-70
2022/12/16 03:58:30;;;;;;;;;;;;;;;-1.78;100.00;94266.00;10524014;28;1975;-72
2022/12/16 04:03:36;;;;;;;;;;;;;;;-1.78;100.00;94263.34;10513982;28;1907;-70
2022/12/16 04:08:40;;;;;;;;;;;;;;;-1.69;100.00;94269.84;10518942;28;1966;-73
2022/12/16 04:24:25;;;;;;;;;;;;;;;-1.98;100.00;94305.06;10512846;28;1990;-70
2022/12/16 04:29:28;;;;;;;;;;;;;;;-1.93;100.00;94310.44;10515213;28;1917;-70
2022/12/16 04:34:31;;;;;;;;;;;;;;;-1.95;100.00;94315.16;10524004;28;1978;-71
